Time;durP1;ratioP1;P1;durP2;ratioP2;P2;SDS_P1;SDS_P2;PMS_P1;PMS_P2;Temp;Humidity;BMP_temperature;BMP_pressure;BME280_temperature;BME280_humidity;BME280_pressure;Samples;Min_cycle;Max_cycle;Signal;HPM_P1;HPM_P2
2021/09/13 00:01:59;;;;;;;96.22;58.65;;;;;;;10.15;88.25;99230.56;1671817;85;21007;-68
2021/09/13 00:04:25;;;;;;;98.30;59.53;;;;;;;10.12;88.32;99232.56;1684553;84;21081;-70
2021/09/13 00:06:56;;;;;;;97.92;57.08;;;;;;;10.10;88.44;99227.41;1682617;85;21089;-67
2021/09/13 00:09:29;;;;;;;99.32;56.80;;;;;;;10.08;88.44;99222.80;1656694;84;20999;-68
2021/09/13 00:12:01;;;;;;;90.92;54.53;;;;;;;10.07;88.40;99225.86;1684202;84;21001;-66
2021/09/13 00:14:40;;;;;;;88.97;53.15;;;;;;;10.03;88.41;99226.26;1681360;84;20962;-69
2021/09/13 00:17:12;;;;;;;94.07;52.62;;;;;;;10.01;88.44;99228.52;1648639;86;21068;-68
2021/09/13 00:19:42;;;;;;;89.32;53.30;;;;;;;9.99;88.65;99226.09;1642652;86;21466;-69
2021/09/13 00:24:53;;;;;;;89.28;49.83;;;;;;;9.94;88.58;99222.13;1625005;86;20928;-67
2021/09/13 00:27:27;;;;;;;94.83;51.25;;;;;;;9.92;88.62;99221.08;1639060;86;20972;-68
2021/09/13 00:29:58;;;;;;;82.62;47.73;;;;;;;9.87;88.73;99217.11;1643923;86;20941;-69
2021/09/13 00:32:28;;;;;;;85.55;44.85;;;;;;;9.84;88.80;99213.63;1641867;86;20952;-68
2021/09/13 00:34:58;;;;;;;74.12;42.17;;;;;;;9.82;88.87;99204.92;1644446;86;21538;-68
2021/09/13 00:37:28;;;;;;;68.78;40.67;;;;;;;9.81;88.97;99206.08;1646995;86;21113;-69
2021/09/13 00:40:07;;;;;;;;;;;;;;;9.81;88.97;99213.49;1620145;87;21002;-69
2021/09/13 00:42:41;;;;;;;67.85;37.13;;;;;;;9.78;88.98;99205.34;1613859;87;20134;-69
2021/09/13 00:45:20;;;;;;;62.98;37.05;;;;;;;9.76;88.96;99208.16;1593290;90;20961;-67
2021/09/13 00:47:50;;;;;;;64.05;35.10;;;;;;;9.72;88.82;99211.29;1607814;88;20965;-68
2021/09/13 00:50:26;;;;;;;61.18;35.13;;;;;;;9.71;89.03;99212.41;1616603;88;21090;-67
2021/09/13 00:52:54;;;;;;;60.90;32.98;;;;;;;9.68;88.96;99210.30;1617339;88;20923;-67
2021/09/13 00:55:23;;;;;;;59.58;33.33;;;;;;;9.64;89.12;99206.02;1617508;88;20894;-68
2021/09/13 00:57:52;;;;;;;60.00;33.10;;;;;;;9.63;89.13;99206.34;1616344;88;21007;-68
2021/09/13 01:00:33;;;;;;;57.25;33.13;;;;;;;9.60;89.26;99203.11;1616960;88;20926;-68
2021/09/13 01:03:06;;;;;;;57.33;34.58;;;;;;;9.57;89.13;99200.19;1616796;88;21181;-68
2021/09/13 01:05:41;;;;;;;56.98;33.02;;;;;;;9.55;89.17;99202.44;1611703;88;21556;-68
2021/09/13 01:08:14;;;;;;;53.73;32.42;;;;;;;9.53;89.34;99204.12;1621012;88;21486;-67
2021/09/13 01:10:49;;;;;;;58.87;33.85;;;;;;;9.53;89.34;99206.06;1617408;88;20962;-68
2021/09/13 01:13:20;;;;;;;59.67;34.20;;;;;;;9.52;89.46;99200.34;1603886;88;21430;-67
2021/09/13 01:15:56;;;;;;;;;;;;;;;9.50;89.40;99200.66;1620817;88;20958;-68
2021/09/13 01:18:24;;;;;;;56.15;32.75;;;;;;;9.49;89.63;99203.70;1617427;88;20101;-67
2021/09/13 01:20:58;;;;;;;59.05;34.18;;;;;;;9.46;89.67;99202.41;1655351;85;20920;-67
2021/09/13 01:23:31;;;;;;;56.98;33.75;;;;;;;9.44;89.72;99207.40;1657098;86;21045;-68
2021/09/13 01:26:04;;;;;;;55.88;32.70;;;;;;;9.44;89.69;99203.84;1650986;85;21057;-68
2021/09/13 01:28:36;;;;;;;53.15;32.40;;;;;;;9.41;89.58;99196.27;1652070;85;21083;-67
2021/09/13 01:31:08;;;;;;;56.80;31.65;;;;;;;9.40;89.62;99202.86;1654245;85;21013;-66
2021/09/13 01:33:36;;;;;;;;;;;;;;;9.37;89.64;99197.45;1658206;85;21740;-67
2021/09/13 01:36:08;;;;;;;55.35;32.75;;;;;;;9.35;89.58;99199.70;1629172;86;20173;-67
2021/09/13 01:38:39;;;;;;;55.15;33.70;;;;;;;9.33;89.69;99203.31;1654150;86;21057;-68
2021/09/13 01:41:14;;;;;;;63.08;33.08;;;;;;;9.32;89.66;99200.89;1654929;85;22510;-68
2021/09/13 01:43:45;;;;;;;62.95;33.50;;;;;;;9.31;89.69;99197.91;1615009;87;20973;-68
2021/09/13 01:46:16;;;;;;;59.60;32.20;;;;;;;9.27;89.75;99208.13;1624100;87;20957;-68
2021/09/13 01:48:56;;;;;;;54.95;32.25;;;;;;;9.26;89.82;99206.52;1612155;86;21008;-68
2021/09/13 01:51:29;;;;;;;54.67;32.28;;;;;;;9.24;89.89;99207.98;1649730;85;21461;-69
2021/09/13 01:54:08;;;;;;;59.35;32.58;;;;;;;9.22;89.83;99202.01;1648275;85;21453;-68
2021/09/13 01:56:45;;;;;;;53.20;33.45;;;;;;;9.21;90.13;99204.50;1655581;85;21068;-68
2021/09/13 01:59:19;;;;;;;52.80;31.77;;;;;;;9.18;90.43;99202.39;1652867;85;20969;-68
2021/09/13 02:01:50;;;;;;;55.52;31.35;;;;;;;9.16;90.36;99204.07;1620477;87;21516;-68
2021/09/13 02:04:23;;;;;;;54.25;31.48;;;;;;;9.14;90.33;99202.20;1592760;87;20911;-68
2021/09/13 02:06:54;;;;;;;55.60;31.85;;;;;;;9.12;90.38;99203.64;1650544;85;20928;-68
2021/09/13 02:09:26;;;;;;;54.77;32.95;;;;;;;9.09;90.37;99202.34;1646144;85;21017;-68
2021/09/13 02:12:00;;;;;;;53.50;32.08;;;;;;;9.07;90.46;99196.93;1653253;85;20942;-68
2021/09/13 02:14:34;;;;;;;53.10;32.05;;;;;;;9.05;90.50;99198.61;1655314;85;20968;-68
2021/09/13 02:17:05;;;;;;;49.95;31.12;;;;;;;9.05;90.69;99199.17;1613125;87;20931;-67
2021/09/13 02:19:37;;;;;;;54.27;30.52;;;;;;;9.04;90.76;99199.73;1614365;88;21627;-68
2021/09/13 02:22:09;;;;;;;56.40;33.67;;;;;;;9.04;90.82;99201.11;1587075;88;21462;-68
2021/09/13 02:24:41;;;;;;;51.53;31.03;;;;;;;9.04;90.71;99197.56;1651956;85;21128;-68
2021/09/13 02:27:10;;;;;;;54.80;33.43;;;;;;;9.03;90.72;99197.31;1625404;87;21107;-67
2021/09/13 02:29:42;;;;;;;52.83;31.15;;;;;;;9.01;90.74;99193.52;1633516;85;21531;-68
2021/09/13 02:32:11;;;;;;;55.48;31.90;;;;;;;8.99;90.75;99194.39;1657331;86;21116;-68
2021/09/13 02:34:43;;;;;;;52.78;32.33;;;;;;;8.99;90.73;99195.77;1648887;86;21100;-68
2021/09/13 02:37:16;;;;;;;55.90;31.93;;;;;;;8.98;90.75;99197.44;1648930;86;21054;-67
2021/09/13 02:39:46;;;;;;;54.98;32.05;;;;;;;8.95;90.74;99197.51;1658859;85;21029;-68
2021/09/13 02:42:19;;;;;;;55.55;32.10;;;;;;;8.95;90.72;99201.61;1657365;85;21559;-68
2021/09/13 02:44:50;;;;;;;54.67;33.25;;;;;;;8.94;90.77;99201.37;1621770;87;21193;-67
2021/09/13 02:47:19;;;;;;;55.78;32.78;;;;;;;8.94;90.93;99204.11;1649594;85;20952;-68
2021/09/13 02:49:50;;;;;;;51.13;30.10;;;;;;;8.93;91.05;99199.75;1654953;85;20948;-68
2021/09/13 02:52:20;;;;;;;49.35;31.23;;;;;;;8.92;90.96;99204.42;1653949;85;21080;-68
2021/09/13 02:54:49;;;;;;;49.03;29.57;;;;;;;8.89;90.95;99203.67;1652593;84;20989;-68
2021/09/13 02:57:17;;;;;;;58.25;32.65;;;;;;;8.87;91.00;99204.55;1655487;85;21176;-69
2021/09/13 02:59:49;;;;;;;48.23;30.10;;;;;;;8.85;91.08;99207.34;1662940;85;20917;-69
2021/09/13 03:02:19;;;;;;;52.93;30.85;;;;;;;8.82;90.99;99201.94;1655626;85;20897;-68
2021/09/13 03:04:50;;;;;;;56.90;29.40;;;;;;;8.80;91.01;99205.55;1627918;86;21071;-68
2021/09/13 03:07:22;;;;;;;48.83;28.95;;;;;;;8.78;91.30;99206.98;1623571;87;20993;-69
2021/09/13 03:09:57;;;;;;;49.00;29.23;;;;;;;8.78;91.51;99199.58;1622908;87;20917;-70
2021/09/13 03:12:27;;;;;;;53.55;30.50;;;;;;;8.76;91.45;99207.29;1619560;87;21060;-69
2021/09/13 03:14:57;;;;;;;60.65;30.82;;;;;;;8.75;91.44;99204.30;1622586;87;21251;-69
2021/09/13 03:17:31;;;;;;;46.75;30.48;;;;;;;8.73;91.64;99206.55;1655570;85;21090;-69
2021/09/13 03:20:00;;;;;;;53.85;28.90;;;;;;;8.74;91.75;99208.72;1619203;87;21026;-68
2021/09/13 03:22:36;;;;;;;52.78;28.45;;;;;;;8.72;91.81;99202.19;1630277;86;21002;-69
2021/09/13 03:25:13;;;;;;;47.93;27.42;;;;;;;8.72;91.95;99210.40;1635381;85;21597;-70
2021/09/13 03:27:45;;;;;;;48.40;27.13;;;;;;;8.71;92.05;99206.60;1653927;86;20937;-70
2021/09/13 03:30:19;;;;;;;43.15;27.15;;;;;;;8.71;92.06;99207.97;1656226;85;20991;-70
2021/09/13 03:32:48;;;;;;;49.53;27.40;;;;;;;8.69;91.92;99204.74;1651713;85;21121;-68
2021/09/13 03:35:19;;;;;;;43.55;28.00;;;;;;;8.67;92.00;99206.98;1651651;85;21833;-69
2021/09/13 03:37:48;;;;;;;47.75;28.23;;;;;;;8.66;91.99;99204.02;1655459;85;21704;-69
2021/09/13 03:40:17;;;;;;;49.67;26.90;;;;;;;8.65;91.95;99203.77;1658416;85;21543;-73
2021/09/13 03:42:48;;;;;;;49.08;28.70;;;;;;;8.65;92.04;99199.67;1655571;85;20956;-73
2021/09/13 03:45:18;;;;;;;56.70;28.30;;;;;;;8.65;92.13;99202.41;1653251;85;21038;-72
2021/09/13 03:48:09;;;;;;;42.23;27.67;;;;;;;8.66;92.22;99205.39;1650912;85;21065;-71
2021/09/13 03:50:42;;;;;;;49.65;27.67;;;;;;;8.66;92.48;99199.92;1652745;85;20972;-71
2021/09/13 03:53:14;;;;;;;56.90;27.93;;;;;;;8.67;92.71;99208.34;1649343;86;21023;-70
2021/09/13 03:55:44;;;;;;;46.77;26.90;;;;;;;8.68;92.93;99203.13;1652794;85;20964;-69
2021/09/13 03:58:13;;;;;;;42.53;26.73;;;;;;;8.69;93.01;99210.21;1653454;85;20908;-72
2021/09/13 04:00:44;;;;;;;44.27;26.55;;;;;;;8.70;93.02;99203.06;1665721;85;21684;-70
2021/09/13 04:03:20;;;;;;;47.90;27.22;;;;;;;8.74;93.13;99204.62;1654738;85;20901;-71
2021/09/13 04:05:52;;;;;;;42.15;27.17;;;;;;;8.79;93.47;99208.59;1659268;85;20957;-69
2021/09/13 04:13:36;;;;;;;46.70;25.37;;;;;;;8.93;93.93;99202.48;1652991;84;21166;-68
2021/09/13 04:16:14;;;;;;;43.85;25.12;;;;;;;8.99;94.08;99209.45;1639093;86;21029;-69
2021/09/13 04:19:02;;;;;;;44.88;25.37;;;;;;;9.05;94.33;99208.76;1649293;85;20949;-67
2021/09/13 04:21:36;;;;;;;50.52;26.12;;;;;;;9.12;94.61;99208.56;1614860;84;21111;-68
2021/09/13 04:24:04;;;;;;;41.40;25.17;;;;;;;9.20;94.82;99210.54;1586304;86;21185;-69
2021/09/13 04:26:51;;;;;;;46.13;23.98;;;;;;;9.29;95.01;99211.92;1652326;85;21143;-68
2021/09/13 04:29:27;;;;;;;37.75;23.95;;;;;;;9.40;95.29;99213.83;1653598;84;21037;-71
2021/09/13 04:32:00;;;;;;;46.25;26.45;;;;;;;9.49;95.53;99216.84;1615842;86;21050;-68
2021/09/13 04:34:39;;;;;;;44.20;24.95;;;;;;;9.62;95.79;99220.61;1689056;84;21087;-68
2021/09/13 04:37:12;;;;;;;40.95;25.08;;;;;;;9.73;95.88;99216.45;1652381;84;20927;-68
2021/09/13 04:39:43;;;;;;;43.63;24.15;;;;;;;9.84;96.19;99214.20;1646917;85;21236;-68
2021/09/13 04:42:20;;;;;;;57.80;25.17;;;;;;;9.97;96.53;99213.26;1656587;84;20959;-68
2021/09/13 04:45:08;;;;;;;50.75;26.75;;;;;;;10.09;96.85;99212.64;1648535;86;21459;-69
2021/09/13 04:48:00;;;;;;;51.98;25.45;;;;;;;10.23;97.08;99203.73;1557970;91;21658;-69
2021/09/13 04:50:47;;;;;;;51.55;25.00;;;;;;;10.40;97.39;99210.58;1562952;90;21127;-69
2021/09/13 04:53:17;;;;;;;50.08;25.40;;;;;;;10.54;97.70;99204.36;1605467;85;21194;-68
2021/09/13 04:55:46;;;;;;;43.10;23.98;;;;;;;10.69;97.89;99208.55;1653491;86;21061;-69
2021/09/13 04:58:21;;;;;;;54.95;25.17;;;;;;;10.85;98.13;99200.63;1640194;86;21005;-71
2021/09/13 05:00:51;;;;;;;53.87;26.23;;;;;;;11.03;98.33;99201.37;1645649;86;21023;-69
2021/09/13 05:03:23;;;;;;;55.90;26.60;;;;;;;11.20;98.47;99195.26;1653758;85;21008;-71
2021/09/13 05:05:59;;;;;;;51.48;25.50;;;;;;;11.39;98.57;99196.25;1635763;85;21180;-69
2021/09/13 05:08:28;;;;;;;51.42;26.70;;;;;;;11.57;98.70;99195.01;1645537;86;20984;-69
2021/09/13 05:10:58;;;;;;;47.10;27.50;;;;;;;11.77;98.72;99194.86;1658032;85;21045;-69
2021/09/13 05:13:29;;;;;;;51.88;28.25;;;;;;;11.96;98.67;99200.50;1647364;85;21074;-69
2021/09/13 05:16:00;;;;;;;51.18;28.00;;;;;;;12.15;98.47;99193.39;1653122;86;21064;-69
2021/09/13 05:18:34;;;;;;;46.80;27.50;;;;;;;12.36;98.32;99196.72;1651373;85;21146;-68
2021/09/13 05:21:05;;;;;;;45.98;26.82;;;;;;;12.54;98.17;99200.37;1649723;85;21125;-70
2021/09/13 05:23:36;;;;;;;43.98;27.22;;;;;;;12.74;98.24;99199.28;1653657;86;21082;-70
2021/09/13 05:26:03;;;;;;;49.08;25.77;;;;;;;12.94;98.28;99190.18;1648781;86;21110;-70
2021/09/13 05:28:34;;;;;;;41.28;24.75;;;;;;;13.12;97.71;99190.81;1652862;85;20979;-70
2021/09/13 05:31:04;;;;;;;48.17;22.87;;;;;;;13.32;96.52;99187.75;1652594;86;21117;-71
2021/09/13 05:33:39;;;;;;;41.58;22.42;;;;;;;13.54;95.18;99190.08;1649919;85;21553;-69
2021/09/13 05:36:08;;;;;;;39.03;22.37;;;;;;;13.74;95.15;99183.64;1659542;85;21545;-70
2021/09/13 05:38:39;;;;;;;46.20;21.90;;;;;;;13.97;94.07;99185.91;1648716;85;21065;-70
2021/09/13 05:41:14;;;;;;;37.17;22.37;;;;;;;14.18;93.60;99189.33;1649942;85;21063;-70
2021/09/13 05:43:47;;;;;;;34.67;21.17;;;;;;;14.39;92.85;99188.59;1655555;85;21198;-69
2021/09/13 05:46:20;;;;;;;38.73;21.10;;;;;;;14.59;92.25;99188.76;1645466;86;21388;-69
2021/09/13 05:48:51;;;;;;;41.40;19.60;;;;;;;14.79;92.18;99183.04;1648386;85;21114;-70
2021/09/13 05:51:24;;;;;;;33.67;20.32;;;;;;;15.00;91.96;99186.97;1651356;85;21024;-70
2021/09/13 05:53:55;;;;;;;36.53;19.55;;;;;;;15.20;91.21;99180.38;1647978;85;21060;-70
2021/09/13 05:56:27;;;;;;;26.33;15.35;;;;;;;15.41;90.20;99186.23;1647900;86;21092;-70
2021/09/13 05:58:57;;;;;;;27.10;15.48;;;;;;;15.62;88.20;99182.62;1653624;85;21483;-70
2021/09/13 06:01:24;;;;;;;27.32;15.48;;;;;;;15.81;85.40;99174.40;1651304;84;21197;-68
2021/09/13 06:03:53;;;;;;;26.27;15.78;;;;;;;15.99;83.95;99181.73;1647025;84;21891;-70
2021/09/13 06:06:26;;;;;;;31.57;16.70;;;;;;;16.16;82.19;99173.62;1652467;85;20940;-70
2021/09/13 06:08:58;;;;;;;26.02;15.50;;;;;;;16.36;82.63;99178.57;1650337;85;21220;-70
2021/09/13 06:11:27;;;;;;;34.60;15.35;;;;;;;16.56;80.39;99184.34;1650764;85;21002;-71
2021/09/13 06:13:57;;;;;;;27.55;14.13;;;;;;;16.73;78.21;99180.38;1658996;85;20958;-69
2021/09/13 06:16:27;;;;;;;37.17;14.75;;;;;;;16.92;77.27;99182.30;1655036;85;21039;-69
2021/09/13 06:19:02;;;;;;;25.50;15.53;;;;;;;17.07;77.45;99181.41;1656701;86;21029;-69
2021/09/13 06:21:33;;;;;;;31.75;15.00;;;;;;;17.25;75.96;99178.37;1654551;85;20999;-68
2021/09/13 06:24:04;;;;;;;23.67;14.47;;;;;;;17.42;74.68;99175.09;1647768;85;21179;-70
2021/09/13 06:26:35;;;;;;;27.62;13.78;;;;;;;17.59;74.03;99179.34;1634662;85;20958;-70
2021/09/13 06:29:03;;;;;;;28.95;13.72;;;;;;;17.76;72.92;99176.09;1652598;85;21136;-69
2021/09/13 06:31:34;;;;;;;26.07;13.22;;;;;;;17.94;72.11;99180.50;1648174;85;21192;-71
2021/09/13 06:34:06;;;;;;;26.55;13.75;;;;;;;18.11;71.71;99179.16;1648215;85;21155;-71
2021/09/13 06:36:37;;;;;;;22.05;12.98;;;;;;;18.28;70.59;99181.39;1647062;84;20958;-69
2021/09/13 06:39:06;;;;;;;22.52;13.72;;;;;;;18.41;69.59;99181.38;1645904;86;21217;-70
2021/09/13 06:41:37;;;;;;;22.48;13.03;;;;;;;18.54;69.37;99187.47;1654157;85;20915;-70
2021/09/13 06:44:07;;;;;;;19.80;12.25;;;;;;;18.69;69.56;99182.34;1675758;83;21023;-72
2021/09/13 06:49:06;;;;;;;21.55;11.88;;;;;;;19.01;67.19;99179.94;1651597;85;21827;-71
2021/09/13 06:51:40;;;;;;;82.62;15.98;;;;;;;19.16;65.55;99180.86;1675707;85;20915;-71
2021/09/13 06:54:13;;;;;;;35.48;12.73;;;;;;;19.30;64.79;99181.59;1686113;83;20951;-69
2021/09/13 06:56:48;;;;;;;25.75;12.15;;;;;;;19.47;63.75;99182.36;1636426;86;21608;-69
2021/09/13 06:59:26;;;;;;;23.30;11.93;;;;;;;19.61;63.11;99178.34;1643611;85;21131;-70
2021/09/13 07:01:58;;;;;;;21.42;11.40;;;;;;;19.74;61.65;99174.63;1685027;83;21004;-69
2021/09/13 07:04:30;;;;;;;20.90;11.97;;;;;;;19.87;60.35;99177.92;1652085;85;21012;-68
2021/09/13 07:06:56;;;;;;;;;;;;;;;20.00;61.29;99173.05;1657881;84;21475;-71
2021/09/13 07:09:26;;;;;;;31.77;11.83;;;;;;;20.18;61.25;99177.34;1659176;85;20215;-70
2021/09/13 07:11:55;;;;;;;21.40;12.30;;;;;;;20.35;61.44;99179.41;1637145;85;20985;-70
2021/09/13 07:14:25;;;;;;;27.87;11.48;;;;;;;20.54;61.75;99181.72;1657487;85;20964;-71
2021/09/13 07:16:56;;;;;;;21.48;10.95;;;;;;;20.73;60.51;99182.81;1653027;85;21076;-71
2021/09/13 07:19:32;;;;;;;18.75;11.73;;;;;;;21.01;59.15;99181.48;1650580;85;21053;-71
2021/09/13 07:22:01;;;;;;;19.07;10.50;;;;;;;21.51;60.56;99182.98;1618193;87;21057;-69
2021/09/13 07:24:36;;;;;;;17.80;12.05;;;;;;;22.14;58.08;99179.17;1592140;88;21259;-69
2021/09/13 07:27:03;;;;;;;19.35;11.50;;;;;;;22.65;57.28;99182.20;1576019;89;21039;-71
2021/09/13 07:29:29;;;;;;;20.60;10.78;;;;;;;23.11;54.05;99183.99;1620694;88;21049;-73
2021/09/13 07:32:02;;;;;;;23.70;12.10;;;;;;;23.49;52.62;99180.75;1600207;88;21552;-72
2021/09/13 07:34:35;;;;;;;17.48;10.95;;;;;;;23.80;50.90;99185.13;1618553;88;21081;-73
2021/09/13 07:37:05;;;;;;;;;;;;;;;24.08;49.41;99189.08;1598623;88;21101;-72
2021/09/13 07:39:36;;;;;;;21.25;10.63;;;;;;;24.31;47.29;99187.84;1608869;88;20110;-71
2021/09/13 07:42:06;;;;;;;19.62;10.78;;;;;;;24.45;47.74;99191.72;1622025;87;20940;-71
2021/09/13 07:44:40;;;;;;;21.00;11.45;;;;;;;24.68;46.38;99188.44;1621552;87;21295;-70
2021/09/13 07:47:11;;;;;;;19.35;11.20;;;;;;;24.88;46.78;99189.97;1650073;85;21416;-72
2021/09/13 07:49:39;;;;;;;19.70;12.18;;;;;;;25.20;46.29;99186.77;1654219;85;21759;-71
2021/09/13 07:52:12;;;;;;;20.40;13.10;;;;;;;25.47;45.44;99186.74;1654955;85;20972;-70
2021/09/13 07:54:45;;;;;;;18.12;11.57;;;;;;;25.75;44.10;99187.55;1625215;84;21524;-74
2021/09/13 07:57:13;;;;;;;18.77;11.03;;;;;;;25.93;44.39;99183.83;1654093;84;21645;-75
2021/09/13 07:59:52;;;;;;;18.65;11.12;;;;;;;26.05;42.81;99184.59;1608542;87;21073;-74
2021/09/13 08:02:20;;;;;;;16.87;9.48;;;;;;;26.12;42.41;99184.47;1619797;88;21877;-71
2021/09/13 08:04:55;;;;;;;14.60;8.45;;;;;;;26.20;40.51;99184.52;1623861;87;21205;-74
2021/09/13 08:07:28;;;;;;;14.43;9.48;;;;;;;26.21;40.69;99194.55;1648764;85;21008;-74
2021/09/13 08:10:00;;;;;;;20.23;11.88;;;;;;;26.27;40.90;99187.20;1646742;85;21134;-74
2021/09/13 08:12:28;;;;;;;;;;;;;;;26.45;41.37;99181.89;1659998;85;21116;-73
2021/09/13 08:15:00;;;;;;;13.85;9.15;;;;;;;26.63;39.87;99182.30;1649809;85;21131;-73
2021/09/13 08:17:32;;;;;;;17.60;9.78;;;;;;;26.71;39.56;99182.34;1655351;85;21012;-71
2021/09/13 08:20:06;;;;;;;17.32;9.80;;;;;;;26.91;39.47;99187.96;1651004;85;21580;-73
2021/09/13 08:22:37;;;;;;;12.98;8.38;;;;;;;27.07;38.62;99191.48;1652242;84;21033;-73
2021/09/13 08:25:12;;;;;;;16.23;10.37;;;;;;;27.22;38.21;99193.52;1646636;85;21029;-72
2021/09/13 08:28:05;;;;;;;16.60;10.18;;;;;;;27.42;38.05;99180.79;1648829;85;21155;-73
2021/09/13 08:30:36;;;;;;;19.05;9.85;;;;;;;27.51;38.33;99189.44;1652563;84;21077;-72
2021/09/13 08:33:05;;;;;;;20.72;9.45;;;;;;;27.65;37.73;99188.95;1648788;86;21154;-73
2021/09/13 08:35:35;;;;;;;13.88;8.83;;;;;;;27.79;37.38;99185.14;1646009;86;21070;-73
2021/09/13 08:38:02;;;;;;;41.75;9.98;;;;;;;28.02;37.57;99183.36;1656425;86;21257;-74
2021/09/13 08:40:29;;;;;;;36.05;10.13;;;;;;;28.11;38.17;99179.30;1654605;85;21170;-71
2021/09/13 08:43:00;;;;;;;15.25;8.48;;;;;;;28.21;36.82;99182.45;1646537;86;21059;-72
2021/09/13 08:45:44;;;;;;;12.58;7.67;;;;;;;28.24;36.03;99185.22;1658037;85;21062;-74
2021/09/13 08:48:17;;;;;;;13.88;7.37;;;;;;;28.34;36.75;99184.72;1630507;86;21013;-68
2021/09/13 08:53:19;;;;;;;14.63;7.72;;;;;;;28.73;35.94;99189.28;1657937;85;21127;-70
2021/09/13 08:55:50;;;;;;;13.10;7.67;;;;;;;28.87;35.26;99185.28;1641720;85;21126;-69
2021/09/13 08:58:24;;;;;;;11.78;7.75;;;;;;;28.92;34.68;99179.84;1653531;85;21072;-69
2021/09/13 09:00:53;;;;;;;13.55;8.35;;;;;;;28.92;33.72;99188.94;1655893;84;21043;-69
2021/09/13 09:03:26;;;;;;;14.87;9.08;;;;;;;28.82;34.01;99182.39;1656764;85;21018;-70
2021/09/13 09:05:53;;;;;;;16.77;8.68;;;;;;;28.73;34.43;99180.81;1650223;85;21125;-69
2021/09/13 09:08:32;;;;;;;15.55;9.23;;;;;;;28.78;34.35;99175.23;1655171;84;20913;-70
2021/09/13 09:11:05;;;;;;;18.25;8.70;;;;;;;28.86;35.11;99180.88;1651627;85;21442;-70
2021/09/13 09:13:46;;;;;;;19.37;10.10;;;;;;;29.12;36.18;99173.21;1657520;85;21110;-70
2021/09/13 09:16:18;;;;;;;17.15;9.15;;;;;;;29.28;34.56;99170.91;1650543;85;21016;-71
2021/09/13 09:18:48;;;;;;;17.10;9.13;;;;;;;29.33;34.64;99171.77;1648030;84;21171;-69
2021/09/13 09:21:33;;;;;;;20.10;10.00;;;;;;;29.42;35.46;99173.32;1654910;85;21411;-71
2021/09/13 09:24:04;;;;;;;18.90;10.25;;;;;;;29.52;33.59;99167.92;1650948;85;20965;-70
2021/09/13 09:26:38;;;;;;;19.10;10.08;;;;;;;29.59;34.33;99166.27;1659238;85;20973;-70
2021/09/13 09:29:09;;;;;;;13.98;9.93;;;;;;;29.66;32.87;99163.84;1603943;88;21117;-70
2021/09/13 09:31:42;;;;;;;18.05;10.82;;;;;;;29.64;32.71;99164.91;1622601;86;20955;-69
2021/09/13 09:34:18;;;;;;;14.98;10.10;;;;;;;29.65;32.35;99157.39;1653005;86;20952;-68
2021/09/13 09:37:06;;;;;;;14.40;9.65;;;;;;;29.64;32.98;99152.98;1682211;84;21004;-69
2021/09/13 09:39:48;;;;;;;16.48;10.25;;;;;;;29.62;31.93;99158.30;1644659;85;21080;-69
2021/09/13 09:42:48;;;;;;;;;;;;;;;29.52;32.56;99157.40;1664745;85;20946;-69
2021/09/13 09:45:08;;;;;;;15.53;9.90;;;;;;;29.51;33.26;99154.40;1649196;86;21855;-70
2021/09/13 09:47:38;;;;;;;14.87;9.58;;;;;;;29.66;32.40;99155.35;1655204;84;21612;-69
2021/09/13 09:50:13;;;;;;;16.75;9.70;;;;;;;29.72;32.50;99154.32;1655008;85;21028;-68
2021/09/13 09:52:44;;;;;;;15.13;9.05;;;;;;;29.65;31.35;99146.70;1656856;85;20989;-70
2021/09/13 09:55:19;;;;;;;14.83;9.30;;;;;;;29.62;32.51;99153.27;1657606;86;20962;-69
2021/09/13 09:58:10;;;;;;;16.15;9.88;;;;;;;29.78;31.04;99150.30;1634081;86;20994;-70
2021/09/13 10:00:43;;;;;;;17.50;10.30;;;;;;;29.84;31.38;99145.64;1646508;85;24780;-68
2021/09/13 10:03:14;;;;;;;28.47;14.87;;;;;;;29.88;30.99;99151.98;1654652;85;21020;-69
2021/09/13 10:05:47;;;;;;;28.57;12.97;;;;;;;29.97;30.89;99146.41;1637826;85;20962;-68
2021/09/13 10:08:19;;;;;;;16.25;10.10;;;;;;;30.08;32.50;99145.41;1602630;86;21750;-69
2021/09/13 10:10:51;;;;;;;18.87;10.25;;;;;;;30.36;31.22;99139.99;1589964;88;21809;-68
2021/09/13 10:13:21;;;;;;;13.35;9.65;;;;;;;30.65;29.93;99141.16;1591354;88;21130;-69
2021/09/13 10:15:50;;;;;;;;;;;;;;;30.85;28.67;99136.72;1665492;85;21565;-67
2021/09/13 10:18:23;;;;;;;24.52;10.50;;;;;;;30.79;28.60;99132.13;1656836;85;20165;-70
2021/09/13 10:20:58;;;;;;;187.50;84.67;;;;;;;30.68;29.29;99134.56;1657541;84;20957;-68
2021/09/13 10:23:30;;;;;;;20.00;12.37;;;;;;;30.66;29.05;99134.23;1658672;86;21116;-68
2021/09/13 10:26:09;;;;;;;19.40;10.25;;;;;;;30.70;29.77;99134.27;1654005;85;20936;-68
2021/09/13 10:29:05;;;;;;;18.55;9.23;;;;;;;30.81;30.17;99130.41;1656164;85;21107;-68
2021/09/13 10:31:46;;;;;;;19.37;11.73;;;;;;;30.90;28.70;99125.41;1636633;85;21036;-68
2021/09/13 10:34:23;;;;;;;19.12;10.72;;;;;;;30.90;29.36;99128.25;1609398;86;20976;-68
2021/09/13 10:37:14;;;;;;;21.45;11.38;;;;;;;30.84;28.93;99126.64;1637647;86;21080;-68
2021/09/13 10:40:09;;;;;;;25.17;11.55;;;;;;;30.77;29.29;99129.75;1655687;85;21075;-68
2021/09/13 10:42:57;;;;;;;14.03;9.45;;;;;;;30.71;29.89;99124.52;1677117;84;21077;-69
2021/09/13 10:45:39;;;;;;;12.53;8.95;;;;;;;30.70;30.43;99115.06;1636483;86;21109;-67
2021/09/13 10:48:17;;;;;;;14.00;8.50;;;;;;;30.79;29.87;99114.49;1623931;87;21099;-67
2021/09/13 10:50:55;;;;;;;15.65;8.53;;;;;;;30.88;31.21;99115.96;1630201;86;21170;-68
2021/09/13 10:53:29;;;;;;;18.25;8.80;;;;;;;31.02;30.52;99116.03;1621685;87;21646;-67
2021/09/13 10:56:05;;;;;;;17.60;9.10;;;;;;;31.11;29.94;99112.45;1626490;86;20988;-68
2021/09/13 10:58:44;;;;;;;17.62;9.83;;;;;;;31.10;29.96;99108.83;1638316;85;21082;-67
2021/09/13 11:01:26;;;;;;;15.23;9.53;;;;;;;31.22;29.78;99107.78;1627546;87;20954;-68
2021/09/13 11:04:08;;;;;;;11.40;8.13;;;;;;;31.48;29.66;99102.04;1628303;85;21172;-68
2021/09/13 11:06:46;;;;;;;12.98;8.78;;;;;;;31.67;30.18;99107.13;1623171;86;20987;-70
2021/09/13 11:09:18;;;;;;;17.02;7.72;;;;;;;31.83;29.29;99101.96;1629792;87;21474;-68
2021/09/13 11:11:49;;;;;;;12.75;8.48;;;;;;;31.96;29.28;99103.23;1628201;87;21526;-68
2021/09/13 11:14:25;;;;;;;13.20;7.58;;;;;;;32.04;28.73;99103.09;1623945;86;21039;-68
2021/09/13 11:17:03;;;;;;;40.80;10.48;;;;;;;32.15;27.62;99101.20;1654727;86;21246;-68
2021/09/13 11:19:31;;;;;;;14.78;8.33;;;;;;;32.20;27.93;99090.62;1637399;84;21044;-68
2021/09/13 11:22:04;;;;;;;10.48;7.85;;;;;;;32.26;28.36;99086.55;1656382;85;20991;-68
2021/09/13 11:24:39;;;;;;;11.83;6.37;;;;;;;32.30;27.42;99088.60;1657084;85;21032;-67
2021/09/13 11:27:18;;;;;;;10.88;5.83;;;;;;;32.26;26.35;99080.88;1638879;86;22886;-70
2021/09/13 11:29:53;;;;;;;11.18;6.58;;;;;;;32.03;27.71;99083.69;1648231;85;21117;-68
2021/09/13 11:32:23;;;;;;;8.78;5.92;;;;;;;31.88;28.03;99081.31;1639013;85;20908;-68
2021/09/13 11:34:53;;;;;;;28.23;7.05;;;;;;;31.81;28.38;99078.15;1653083;85;21063;-69
2021/09/13 11:37:26;;;;;;;17.52;6.17;;;;;;;31.75;28.28;99075.80;1648170;85;21023;-68
2021/09/13 11:40:01;;;;;;;10.08;6.00;;;;;;;31.68;28.31;99081.78;1680765;84;21604;-69
2021/09/13 11:42:33;;;;;;;11.55;6.17;;;;;;;31.63;28.68;99076.08;1666016;85;21808;-68
2021/09/13 11:45:12;;;;;;;10.50;6.20;;;;;;;31.66;27.95;99077.18;1681852;83;21592;-68
2021/09/13 11:47:42;;;;;;;9.20;5.87;;;;;;;31.59;27.97;99074.02;1683335;84;21488;-69
2021/09/13 11:50:17;;;;;;;11.70;7.03;;;;;;;31.69;28.74;99067.76;1685523;85;21438;-68
2021/09/13 11:52:49;;;;;;;7.72;5.58;;;;;;;31.87;28.46;99066.33;1658703;85;21026;-68
2021/09/13 11:55:20;;;;;;;11.40;5.55;;;;;;;32.03;28.39;99056.09;1682715;83;21035;-69
2021/09/13 11:58:00;;;;;;;7.97;5.35;;;;;;;32.05;28.29;99052.77;1681567;85;21224;-68
2021/09/13 12:00:38;;;;;;;8.53;5.97;;;;;;;31.94;28.23;99053.25;1682428;85;21035;-68
2021/09/13 12:03:09;;;;;;;7.97;6.28;;;;;;;32.02;29.21;99050.25;1681594;85;20876;-68
2021/09/13 12:05:39;;;;;;;9.75;5.85;;;;;;;32.08;29.93;99048.98;1682526;85;21204;-71